sensor_id;sensor_type;location;lat;lon;timestamp;pressure;altitude;pressure_sealevel;temperature;humidity
19259;BME280;9763;48.780;9.212;2023-04-10T00:00:57;98988.53;;;11.88;38.27
19259;BME280;9763;48.780;9.212;2023-04-10T00:04:24;98987.88;;;11.84;38.56
19259;BME280;9763;48.780;9.212;2023-04-10T00:07:48;98991.63;;;11.80;38.76
19259;BME280;9763;48.780;9.212;2023-04-10T00:11:12;98987.50;;;11.76;38.70
19259;BME280;9763;48.780;9.212;2023-04-10T00:14:36;98987.00;;;11.70;38.81
19259;BME280;9763;48.780;9.212;2023-04-10T00:18:00;98982.81;;;11.67;38.55
19259;BME280;9763;48.780;9.212;2023-04-10T00:21:24;98978.84;;;11.60;38.74
19259;BME280;9763;48.780;9.212;2023-04-10T00:24:48;98974.94;;;11.53;38.75
19259;BME280;9763;48.780;9.212;2023-04-10T00:28:11;98976.25;;;11.46;38.80
19259;BME280;9763;48.780;9.212;2023-04-10T00:31:35;98981.00;;;11.39;38.89
19259;BME280;9763;48.780;9.212;2023-04-10T00:35:01;98976.47;;;11.27;38.67
19259;BME280;9763;48.780;9.212;2023-04-10T00:38:25;98988.69;;;11.27;39.08
19259;BME280;9763;48.780;9.212;2023-04-10T00:41:49;98973.41;;;11.21;38.97
19259;BME280;9763;48.780;9.212;2023-04-10T00:45:12;98969.44;;;11.13;39.15
19259;BME280;9763;48.780;9.212;2023-04-10T00:48:36;98972.44;;;11.07;38.69
19259;BME280;9763;48.780;9.212;2023-04-10T00:52:01;98968.47;;;11.00;39.17
19259;BME280;9763;48.780;9.212;2023-04-10T00:55:25;98967.16;;;10.93;39.35
19259;BME280;9763;48.780;9.212;2023-04-10T00:58:49;98967.50;;;10.87;39.25
19259;BME280;9763;48.780;9.212;2023-04-10T01:02:12;98967.19;;;10.77;39.30
19259;BME280;9763;48.780;9.212;2023-04-10T01:05:45;98962.97;;;10.75;39.63
19259;BME280;9763;48.780;9.212;2023-04-10T01:09:23;98966.78;;;10.69;39.74
19259;BME280;9763;48.780;9.212;2023-04-10T01:13:04;98966.28;;;10.63;40.03
19259;BME280;9763;48.780;9.212;2023-04-10T01:16:37;98970.84;;;10.59;39.67
19259;BME280;9763;48.780;9.212;2023-04-10T01:20:09;98971.94;;;10.55;39.72
19259;BME280;9763;48.780;9.212;2023-04-10T01:24:03;98970.53;;;10.50;39.85
19259;BME280;9763;48.780;9.212;2023-04-10T01:27:44;98978.59;;;10.45;39.74
19259;BME280;9763;48.780;9.212;2023-04-10T01:31:16;98974.47;;;10.41;40.05
19259;BME280;9763;48.780;9.212;2023-04-10T01:34:46;98979.94;;;10.36;40.21
19259;BME280;9763;48.780;9.212;2023-04-10T01:38:16;98973.38;;;10.29;39.96
19259;BME280;9763;48.780;9.212;2023-04-10T01:41:43;98976.16;;;10.26;40.03
19259;BME280;9763;48.780;9.212;2023-04-10T01:45:14;98973.94;;;10.19;40.67
19259;BME280;9763;48.780;9.212;2023-04-10T01:48:43;98976.03;;;10.12;40.16
19259;BME280;9763;48.780;9.212;2023-04-10T01:52:08;98968.53;;;10.06;40.60
19259;BME280;9763;48.780;9.212;2023-04-10T01:55:36;98968.03;;;9.99;40.40
19259;BME280;9763;48.780;9.212;2023-04-10T01:59:02;98950.94;;;9.94;40.61
19259;BME280;9763;48.780;9.212;2023-04-10T02:02:30;98964.22;;;9.89;40.67
19259;BME280;9763;48.780;9.212;2023-04-10T02:06:08;98964.38;;;9.86;40.93
19259;BME280;9763;48.780;9.212;2023-04-10T02:09:44;98953.19;;;9.84;40.63
19259;BME280;9763;48.780;9.212;2023-04-10T02:13:13;98948.13;;;9.81;40.57
19259;BME280;9763;48.780;9.212;2023-04-10T02:16:38;98955.31;;;9.78;40.67
19259;BME280;9763;48.780;9.212;2023-04-10T02:20:05;98954.53;;;9.75;40.89
19259;BME280;9763;48.780;9.212;2023-04-10T02:23:31;98958.22;;;9.71;41.17
19259;BME280;9763;48.780;9.212;2023-04-10T02:26:55;98963.56;;;9.68;40.85
19259;BME280;9763;48.780;9.212;2023-04-10T02:30:19;98962.91;;;9.65;41.14
19259;BME280;9763;48.780;9.212;2023-04-10T02:33:43;98960.38;;;9.63;41.24
19259;BME280;9763;48.780;9.212;2023-04-10T02:37:07;98969.97;;;9.63;41.26
19259;BME280;9763;48.780;9.212;2023-04-10T02:40:32;98966.59;;;9.61;41.48
19259;BME280;9763;48.780;9.212;2023-04-10T02:44:08;98967.53;;;9.60;41.32
19259;BME280;9763;48.780;9.212;2023-04-10T02:47:32;98962.38;;;9.58;41.25
19259;BME280;9763;48.780;9.212;2023-04-10T02:50:56;98971.28;;;9.54;41.55
19259;BME280;9763;48.780;9.212;2023-04-10T02:54:22;98970.59;;;9.51;41.34
19259;BME280;9763;48.780;9.212;2023-04-10T02:57:47;98978.50;;;9.49;41.65
19259;BME280;9763;48.780;9.212;2023-04-10T03:01:11;98968.31;;;9.45;41.75
19259;BME280;9763;48.780;9.212;2023-04-10T03:04:40;98972.00;;;9.41;41.39
19259;BME280;9763;48.780;9.212;2023-04-10T03:08:04;98979.97;;;9.37;41.71
19259;BME280;9763;48.780;9.212;2023-04-10T03:11:29;98978.34;;;9.35;41.81
19259;BME280;9763;48.780;9.212;2023-04-10T03:14:54;98974.97;;;9.33;41.77
19259;BME280;9763;48.780;9.212;2023-04-10T03:18:17;98973.53;;;9.27;42.12
19259;BME280;9763;48.780;9.212;2023-04-10T03:21:44;98958.13;;;9.23;42.03
19259;BME280;9763;48.780;9.212;2023-04-10T03:25:08;98959.06;;;9.22;42.09
19259;BME280;9763;48.780;9.212;2023-04-10T03:28:32;98955.69;;;9.20;41.95
19259;BME280;9763;48.780;9.212;2023-04-10T03:31:59;98952.22;;;9.19;42.06
19259;BME280;9763;48.780;9.212;2023-04-10T03:35:23;98954.00;;;9.19;42.14
19259;BME280;9763;48.780;9.212;2023-04-10T03:38:47;98952.31;;;9.18;42.25
19259;BME280;9763;48.780;9.212;2023-04-10T03:42:11;98945.44;;;9.17;42.34
19259;BME280;9763;48.780;9.212;2023-04-10T03:45:35;98946.38;;;9.16;42.37
19259;BME280;9763;48.780;9.212;2023-04-10T03:49:00;98933.50;;;9.13;42.25
19259;BME280;9763;48.780;9.212;2023-04-10T03:52:27;98937.84;;;9.12;42.50
19259;BME280;9763;48.780;9.212;2023-04-10T03:55:51;98937.84;;;9.12;42.60
19259;BME280;9763;48.780;9.212;2023-04-10T03:59:17;98940.53;;;9.11;42.64
19259;BME280;9763;48.780;9.212;2023-04-10T04:02:40;98923.84;;;8.97;42.53
19259;BME280;9763;48.780;9.212;2023-04-10T04:06:07;98939.94;;;9.06;42.59
19259;BME280;9763;48.780;9.212;2023-04-10T04:09:39;98938.41;;;9.01;42.65
19259;BME280;9763;48.780;9.212;2023-04-10T04:13:14;98939.47;;;8.97;42.77
19259;BME280;9763;48.780;9.212;2023-04-10T04:16:47;98936.16;;;8.94;43.00
19259;BME280;9763;48.780;9.212;2023-04-10T04:20:46;98929.38;;;8.91;43.07
19259;BME280;9763;48.780;9.212;2023-04-10T04:24:17;98928.53;;;8.91;42.91
19259;BME280;9763;48.780;9.212;2023-04-10T04:27:56;98925.00;;;8.92;43.09
19259;BME280;9763;48.780;9.212;2023-04-10T04:31:29;98925.75;;;8.94;42.96
19259;BME280;9763;48.780;9.212;2023-04-10T04:35:08;98923.91;;;8.96;42.97
19259;BME280;9763;48.780;9.212;2023-04-10T04:38:52;98916.19;;;8.94;43.39
19259;BME280;9763;48.780;9.212;2023-04-10T04:42:44;98921.78;;;9.04;43.08
19259;BME280;9763;48.780;9.212;2023-04-10T04:46:19;98928.56;;;9.07;43.52
19259;BME280;9763;48.780;9.212;2023-04-10T04:49:45;98926.66;;;9.10;43.20
19259;BME280;9763;48.780;9.212;2023-04-10T04:53:23;98921.38;;;9.12;43.27
19259;BME280;9763;48.780;9.212;2023-04-10T04:57:23;98917.88;;;9.13;43.02
19259;BME280;9763;48.780;9.212;2023-04-10T05:01:08;98919.41;;;9.17;43.68
19259;BME280;9763;48.780;9.212;2023-04-10T05:04:48;98922.97;;;9.31;43.77
19259;BME280;9763;48.780;9.212;2023-04-10T05:08:32;98929.16;;;9.46;43.90
19259;BME280;9763;48.780;9.212;2023-04-10T05:12:05;98924.91;;;9.61;44.21
19259;BME280;9763;48.780;9.212;2023-04-10T05:15:47;98922.06;;;9.81;43.91
19259;BME280;9763;48.780;9.212;2023-04-10T05:19:34;98913.91;;;10.03;44.35
19259;BME280;9763;48.780;9.212;2023-04-10T05:23:09;98916.50;;;10.20;43.92
19259;BME280;9763;48.780;9.212;2023-04-10T05:26:51;98919.25;;;10.33;44.03
19259;BME280;9763;48.780;9.212;2023-04-10T05:30:35;98925.47;;;10.46;43.72
19259;BME280;9763;48.780;9.212;2023-04-10T05:34:07;98931.16;;;10.68;43.96
19259;BME280;9763;48.780;9.212;2023-04-10T05:37:41;98924.66;;;11.05;43.98
19259;BME280;9763;48.780;9.212;2023-04-10T05:41:40;98925.38;;;11.51;43.92
19259;BME280;9763;48.780;9.212;2023-04-10T05:45:22;98913.25;;;11.93;44.05
19259;BME280;9763;48.780;9.212;2023-04-10T05:49:04;98920.16;;;12.35;43.86
19259;BME280;9763;48.780;9.212;2023-04-10T05:52:47;98918.31;;;12.77;43.50
19259;BME280;9763;48.780;9.212;2023-04-10T05:56:29;98916.13;;;13.23;43.54
19259;BME280;9763;48.780;9.212;2023-04-10T06:00:28;98919.03;;;13.82;43.32
19259;BME280;9763;48.780;9.212;2023-04-10T06:04:15;98910.28;;;14.30;43.00
19259;BME280;9763;48.780;9.212;2023-04-10T06:07:40;98918.84;;;14.58;42.92
19259;BME280;9763;48.780;9.212;2023-04-10T06:11:05;98922.63;;;14.77;42.41
19259;BME280;9763;48.780;9.212;2023-04-10T06:14:29;98919.13;;;15.01;42.52
19259;BME280;9763;48.780;9.212;2023-04-10T06:17:54;98917.75;;;15.19;42.44
19259;BME280;9763;48.780;9.212;2023-04-10T06:21:18;98913.38;;;15.42;42.23
19259;BME280;9763;48.780;9.212;2023-04-10T06:24:41;98910.78;;;15.64;42.05
19259;BME280;9763;48.780;9.212;2023-04-10T06:28:06;98914.75;;;15.81;41.55
19259;BME280;9763;48.780;9.212;2023-04-10T06:31:32;98913.78;;;15.93;41.61
19259;BME280;9763;48.780;9.212;2023-04-10T06:34:57;98915.44;;;16.16;41.52
19259;BME280;9763;48.780;9.212;2023-04-10T06:38:21;98916.34;;;16.38;41.48
19259;BME280;9763;48.780;9.212;2023-04-10T06:41:45;98919.72;;;16.72;41.71
19259;BME280;9763;48.780;9.212;2023-04-10T06:45:24;98907.94;;;17.08;41.44
19259;BME280;9763;48.780;9.212;2023-04-10T06:48:48;98905.53;;;17.46;41.29
19259;BME280;9763;48.780;9.212;2023-04-10T06:52:12;98903.56;;;17.99;41.21
19259;BME280;9763;48.780;9.212;2023-04-10T06:55:36;98900.25;;;18.66;41.29
19259;BME280;9763;48.780;9.212;2023-04-10T06:58:59;98900.84;;;19.46;40.65
19259;BME280;9763;48.780;9.212;2023-04-10T07:02:25;98894.34;;;20.32;40.38
19259;BME280;9763;48.780;9.212;2023-04-10T07:05:49;98901.28;;;21.13;39.83
19259;BME280;9763;48.780;9.212;2023-04-10T07:09:13;98889.63;;;22.18;39.18
19259;BME280;9763;48.780;9.212;2023-04-10T07:12:36;98884.06;;;23.43;39.04
19259;BME280;9763;48.780;9.212;2023-04-10T07:16:00;98876.97;;;24.60;38.36
19259;BME280;9763;48.780;9.212;2023-04-10T07:19:25;98871.56;;;25.81;37.28
19259;BME280;9763;48.780;9.212;2023-04-10T07:22:49;98863.09;;;26.85;36.39
19259;BME280;9763;48.780;9.212;2023-04-10T07:26:13;98857.22;;;27.80;35.37
19259;BME280;9763;48.780;9.212;2023-04-10T07:29:37;98856.91;;;28.57;35.23
19259;BME280;9763;48.780;9.212;2023-04-10T07:33:01;98864.44;;;29.41;34.26
19259;BME280;9763;48.780;9.212;2023-04-10T07:36:26;98856.63;;;30.04;33.10
19259;BME280;9763;48.780;9.212;2023-04-10T07:39:49;98857.03;;;30.45;32.61
19259;BME280;9763;48.780;9.212;2023-04-10T07:43:13;98855.38;;;30.83;31.53
19259;BME280;9763;48.780;9.212;2023-04-10T07:46:37;98863.16;;;31.22;30.92
19259;BME280;9763;48.780;9.212;2023-04-10T07:50:01;98860.88;;;31.44;30.51
19259;BME280;9763;48.780;9.212;2023-04-10T07:53:26;98856.84;;;31.35;29.91
19259;BME280;9763;48.780;9.212;2023-04-10T07:56:51;98854.47;;;31.20;28.51
19259;BME280;9763;48.780;9.212;2023-04-10T08:00:16;98857.84;;;31.16;28.49
19259;BME280;9763;48.780;9.212;2023-04-10T08:03:40;98856.22;;;31.08;28.13
19259;BME280;9763;48.780;9.212;2023-04-10T08:07:04;98839.63;;;31.04;27.72
19259;BME280;9763;48.780;9.212;2023-04-10T08:10:29;98835.28;;;31.10;27.64
19259;BME280;9763;48.780;9.212;2023-04-10T08:13:55;98835.38;;;31.22;27.18
19259;BME280;9763;48.780;9.212;2023-04-10T08:17:19;98845.75;;;31.43;26.72
19259;BME280;9763;48.780;9.212;2023-04-10T08:20:43;98838.19;;;32.06;26.48
19259;BME280;9763;48.780;9.212;2023-04-10T08:24:06;98829.94;;;32.49;26.40
19259;BME280;9763;48.780;9.212;2023-04-10T08:27:31;98828.66;;;32.52;25.74
19259;BME280;9763;48.780;9.212;2023-04-10T08:30:54;98830.94;;;32.37;25.38
19259;BME280;9763;48.780;9.212;2023-04-10T08:34:18;98839.16;;;32.30;25.01
19259;BME280;9763;48.780;9.212;2023-04-10T08:37:41;98826.34;;;31.89;24.76
19259;BME280;9763;48.780;9.212;2023-04-10T08:41:17;98829.75;;;31.66;25.35
19259;BME280;9763;48.780;9.212;2023-04-10T08:44:42;98821.88;;;31.83;24.57
19259;BME280;9763;48.780;9.212;2023-04-10T08:48:07;98816.38;;;31.90;24.34
19259;BME280;9763;48.780;9.212;2023-04-10T08:51:38;98817.25;;;32.02;24.13
19259;BME280;9763;48.780;9.212;2023-04-10T08:55:08;98820.72;;;32.69;23.96
19259;BME280;9763;48.780;9.212;2023-04-10T08:58:34;98811.03;;;33.38;23.82
19259;BME280;9763;48.780;9.212;2023-04-10T09:01:59;98807.69;;;33.71;23.38
19259;BME280;9763;48.780;9.212;2023-04-10T09:05:25;98804.50;;;33.85;22.66
19259;BME280;9763;48.780;9.212;2023-04-10T09:08:49;98800.28;;;33.89;22.31
19259;BME280;9763;48.780;9.212;2023-04-10T09:12:13;98807.81;;;33.87;21.79
19259;BME280;9763;48.780;9.212;2023-04-10T09:15:58;98794.03;;;34.17;21.83
19259;BME280;9763;48.780;9.212;2023-04-10T09:19:31;98799.28;;;34.36;21.23
19259;BME280;9763;48.780;9.212;2023-04-10T09:22:55;98799.91;;;34.71;21.02
19259;BME280;9763;48.780;9.212;2023-04-10T09:26:27;98798.03;;;35.05;20.72
19259;BME280;9763;48.780;9.212;2023-04-10T09:29:51;98786.09;;;35.61;20.50
19259;BME280;9763;48.780;9.212;2023-04-10T09:33:22;98778.69;;;36.00;19.90
19259;BME280;9763;48.780;9.212;2023-04-10T09:36:55;98773.63;;;36.31;19.68
19259;BME280;9763;48.780;9.212;2023-04-10T09:40:22;98765.69;;;36.88;19.43
19259;BME280;9763;48.780;9.212;2023-04-10T09:43:46;98764.28;;;37.23;19.01
19259;BME280;9763;48.780;9.212;2023-04-10T09:47:19;98750.53;;;37.49;18.42
19259;BME280;9763;48.780;9.212;2023-04-10T09:50:43;98746.09;;;37.28;18.64
19259;BME280;9763;48.780;9.212;2023-04-10T09:54:08;98744.44;;;37.27;18.35
19259;BME280;9763;48.780;9.212;2023-04-10T09:57:33;98731.94;;;37.31;18.41
19259;BME280;9763;48.780;9.212;2023-04-10T10:00:57;98722.22;;;37.03;17.87
19259;BME280;9763;48.780;9.212;2023-04-10T10:04:21;98726.03;;;36.65;18.15
19259;BME280;9763;48.780;9.212;2023-04-10T10:07:45;98717.88;;;36.65;17.87
19259;BME280;9763;48.780;9.212;2023-04-10T10:11:12;98720.72;;;36.81;17.54
19259;BME280;9763;48.780;9.212;2023-04-10T10:14:47;98709.69;;;36.65;17.50
19259;BME280;9763;48.780;9.212;2023-04-10T10:18:21;98700.13;;;36.58;17.57
19259;BME280;9763;48.780;9.212;2023-04-10T10:21:49;98703.91;;;36.89;17.21
19259;BME280;9763;48.780;9.212;2023-04-10T10:25:14;98696.69;;;37.14;17.14
19259;BME280;9763;48.780;9.212;2023-04-10T10:28:40;98688.91;;;37.28;16.91
19259;BME280;9763;48.780;9.212;2023-04-10T10:32:07;98680.25;;;37.57;16.79
19259;BME280;9763;48.780;9.212;2023-04-10T10:35:30;98671.09;;;37.78;16.45
19259;BME280;9763;48.780;9.212;2023-04-10T10:39:04;98653.97;;;38.18;16.41
19259;BME280;9763;48.780;9.212;2023-04-10T10:42:41;98660.53;;;38.58;16.39
19259;BME280;9763;48.780;9.212;2023-04-10T10:46:16;98651.22;;;38.74;15.79
19259;BME280;9763;48.780;9.212;2023-04-10T10:49:59;98648.78;;;38.16;16.03
19259;BME280;9763;48.780;9.212;2023-04-10T10:53:32;98645.91;;;37.45;16.28
19259;BME280;9763;48.780;9.212;2023-04-10T10:56:56;98644.53;;;36.49;16.66
19259;BME280;9763;48.780;9.212;2023-04-10T11:00:21;98645.97;;;35.44;16.47
19259;BME280;9763;48.780;9.212;2023-04-10T11:03:46;98637.00;;;34.61;16.93
19259;BME280;9763;48.780;9.212;2023-04-10T11:07:11;98648.47;;;34.01;16.83
19259;BME280;9763;48.780;9.212;2023-04-10T11:11:00;98642.66;;;33.24;17.43
19259;BME280;9763;48.780;9.212;2023-04-10T11:14:28;98628.47;;;33.05;17.19
19259;BME280;9763;48.780;9.212;2023-04-10T11:17:53;98634.34;;;33.54;17.47
19259;BME280;9763;48.780;9.212;2023-04-10T11:21:20;98629.28;;;34.03;16.66
19259;BME280;9763;48.780;9.212;2023-04-10T11:24:55;98622.13;;;34.63;16.65
19259;BME280;9763;48.780;9.212;2023-04-10T11:28:36;98626.53;;;35.30;16.51
19259;BME280;9763;48.780;9.212;2023-04-10T11:32:02;98618.91;;;35.49;16.18
19259;BME280;9763;48.780;9.212;2023-04-10T11:35:27;98625.31;;;35.43;15.98
19259;BME280;9763;48.780;9.212;2023-04-10T11:38:55;98611.53;;;35.00;16.22
19259;BME280;9763;48.780;9.212;2023-04-10T11:42:20;98607.91;;;34.95;16.17
19259;BME280;9763;48.780;9.212;2023-04-10T11:45:43;98613.03;;;35.35;15.73
19259;BME280;9763;48.780;9.212;2023-04-10T11:49:09;98604.00;;;35.29;15.52
19259;BME280;9763;48.780;9.212;2023-04-10T11:52:33;98611.31;;;34.85;15.76
19259;BME280;9763;48.780;9.212;2023-04-10T11:55:58;98597.50;;;34.70;15.43
19259;BME280;9763;48.780;9.212;2023-04-10T11:59:21;98594.22;;;34.85;15.67
19259;BME280;9763;48.780;9.212;2023-04-10T12:02:50;98570.31;;;35.25;15.80
19259;BME280;9763;48.780;9.212;2023-04-10T12:06:16;98569.53;;;35.57;15.60
19259;BME280;9763;48.780;9.212;2023-04-10T12:09:41;98555.69;;;35.58;15.49
19259;BME280;9763;48.780;9.212;2023-04-10T12:13:06;98548.00;;;35.23;15.90
19259;BME280;9763;48.780;9.212;2023-04-10T12:16:31;98548.75;;;34.75;16.13
19259;BME280;9763;48.780;9.212;2023-04-10T12:19:55;98544.56;;;34.46;16.40
19259;BME280;9763;48.780;9.212;2023-04-10T12:23:19;98551.19;;;34.00;16.13
19259;BME280;9763;48.780;9.212;2023-04-10T12:26:47;98539.88;;;33.57;16.49
19259;BME280;9763;48.780;9.212;2023-04-10T12:30:13;98549.38;;;33.15;16.87
19259;BME280;9763;48.780;9.212;2023-04-10T12:33:37;98544.91;;;32.57;16.42
19259;BME280;9763;48.780;9.212;2023-04-10T12:37:02;98541.41;;;32.10;17.19
19259;BME280;9763;48.780;9.212;2023-04-10T12:40:26;98544.88;;;31.64;17.28
19259;BME280;9763;48.780;9.212;2023-04-10T12:43:51;98534.44;;;31.37;17.13
19259;BME280;9763;48.780;9.212;2023-04-10T12:47:16;98530.03;;;31.13;17.12
19259;BME280;9763;48.780;9.212;2023-04-10T12:50:46;98529.44;;;30.74;16.96
19259;BME280;9763;48.780;9.212;2023-04-10T12:54:10;98535.19;;;30.41;16.51
19259;BME280;9763;48.780;9.212;2023-04-10T12:57:35;98517.94;;;29.81;16.92
19259;BME280;9763;48.780;9.212;2023-04-10T13:01:04;98511.88;;;29.29;16.60
19259;BME280;9763;48.780;9.212;2023-04-10T13:04:30;98524.53;;;28.84;16.84
19259;BME280;9763;48.780;9.212;2023-04-10T13:07:54;98510.81;;;28.41;16.97
19259;BME280;9763;48.780;9.212;2023-04-10T13:11:18;98500.53;;;28.05;17.44
19259;BME280;9763;48.780;9.212;2023-04-10T13:14:43;98502.81;;;27.82;17.86
19259;BME280;9763;48.780;9.212;2023-04-10T13:18:07;98508.81;;;27.57;18.16
19259;BME280;9763;48.780;9.212;2023-04-10T13:21:34;98505.25;;;27.44;17.81
19259;BME280;9763;48.780;9.212;2023-04-10T13:24:58;98506.50;;;27.41;18.29
19259;BME280;9763;48.780;9.212;2023-04-10T13:28:22;98491.66;;;27.39;18.21
19259;BME280;9763;48.780;9.212;2023-04-10T13:31:45;98492.88;;;27.43;18.31
19259;BME280;9763;48.780;9.212;2023-04-10T13:35:10;98485.25;;;27.46;18.04
19259;BME280;9763;48.780;9.212;2023-04-10T13:38:35;98484.06;;;27.55;17.89
19259;BME280;9763;48.780;9.212;2023-04-10T13:41:58;98476.03;;;27.62;18.16
19259;BME280;9763;48.780;9.212;2023-04-10T13:45:23;98476.63;;;27.51;17.70
19259;BME280;9763;48.780;9.212;2023-04-10T13:48:46;98483.59;;;27.32;18.04
19259;BME280;9763;48.780;9.212;2023-04-10T13:52:10;98473.88;;;27.18;18.50
19259;BME280;9763;48.780;9.212;2023-04-10T13:55:35;98471.75;;;26.94;18.20
19259;BME280;9763;48.780;9.212;2023-04-10T13:59:00;98459.31;;;26.66;18.76
19259;BME280;9763;48.780;9.212;2023-04-10T14:02:24;98455.31;;;26.42;18.46
19259;BME280;9763;48.780;9.212;2023-04-10T14:05:47;98452.03;;;26.12;19.10
19259;BME280;9763;48.780;9.212;2023-04-10T14:09:12;98426.75;;;25.80;19.14
19259;BME280;9763;48.780;9.212;2023-04-10T14:12:37;98449.59;;;25.83;19.57
19259;BME280;9763;48.780;9.212;2023-04-10T14:16:00;98444.38;;;25.75;19.01
19259;BME280;9763;48.780;9.212;2023-04-10T14:19:25;98436.13;;;25.70;19.77
19259;BME280;9763;48.780;9.212;2023-04-10T14:22:49;98424.81;;;25.68;19.77
19259;BME280;9763;48.780;9.212;2023-04-10T14:26:13;98425.69;;;25.54;19.80
19259;BME280;9763;48.780;9.212;2023-04-10T14:29:39;98424.84;;;25.46;19.92
19259;BME280;9763;48.780;9.212;2023-04-10T14:33:16;98422.78;;;25.48;19.92
19259;BME280;9763;48.780;9.212;2023-04-10T14:36:41;98415.38;;;25.51;20.07
19259;BME280;9763;48.780;9.212;2023-04-10T14:40:08;98408.91;;;25.38;19.67
19259;BME280;9763;48.780;9.212;2023-04-10T14:43:32;98401.25;;;25.29;20.24
19259;BME280;9763;48.780;9.212;2023-04-10T14:46:57;98393.72;;;25.11;20.77
19259;BME280;9763;48.780;9.212;2023-04-10T14:50:21;98408.31;;;25.15;20.44
19259;BME280;9763;48.780;9.212;2023-04-10T14:53:44;98409.66;;;25.04;19.97
19259;BME280;9763;48.780;9.212;2023-04-10T14:57:08;98399.00;;;24.90;20.04
19259;BME280;9763;48.780;9.212;2023-04-10T15:00:34;98403.19;;;24.77;20.81
19259;BME280;9763;48.780;9.212;2023-04-10T15:03:59;98394.13;;;24.72;20.36
19259;BME280;9763;48.780;9.212;2023-04-10T15:07:23;98387.50;;;24.68;20.35
19259;BME280;9763;48.780;9.212;2023-04-10T15:10:47;98387.81;;;24.58;20.95
19259;BME280;9763;48.780;9.212;2023-04-10T15:14:12;98372.94;;;24.49;21.06
19259;BME280;9763;48.780;9.212;2023-04-10T15:17:36;98375.72;;;24.41;20.45
19259;BME280;9763;48.780;9.212;2023-04-10T15:21:01;98372.28;;;24.26;21.06
19259;BME280;9763;48.780;9.212;2023-04-10T15:24:25;98368.41;;;24.14;21.07
19259;BME280;9763;48.780;9.212;2023-04-10T15:27:54;98357.09;;;23.97;20.76
19259;BME280;9763;48.780;9.212;2023-04-10T15:31:21;98355.28;;;23.83;21.41
19259;BME280;9763;48.780;9.212;2023-04-10T15:34:45;98348.84;;;23.77;20.98
19259;BME280;9763;48.780;9.212;2023-04-10T15:38:11;98341.88;;;23.76;21.48
19259;BME280;9763;48.780;9.212;2023-04-10T15:41:35;98336.34;;;23.78;21.59
19259;BME280;9763;48.780;9.212;2023-04-10T15:44:59;98329.56;;;23.75;21.04
19259;BME280;9763;48.780;9.212;2023-04-10T15:48:23;98303.19;;;23.51;21.71
19259;BME280;9763;48.780;9.212;2023-04-10T15:51:47;98317.41;;;23.58;21.37
19259;BME280;9763;48.780;9.212;2023-04-10T15:55:12;98321.66;;;23.52;21.85
19259;BME280;9763;48.780;9.212;2023-04-10T15:58:37;98313.09;;;23.42;21.74
19259;BME280;9763;48.780;9.212;2023-04-10T16:02:01;98311.31;;;23.34;21.31
19259;BME280;9763;48.780;9.212;2023-04-10T16:05:25;98312.25;;;23.27;21.86
19259;BME280;9763;48.780;9.212;2023-04-10T16:08:50;98307.44;;;23.22;21.98
19259;BME280;9763;48.780;9.212;2023-04-10T16:12:15;98300.19;;;23.16;22.13
19259;BME280;9763;48.780;9.212;2023-04-10T16:15:39;98301.75;;;23.11;22.30
19259;BME280;9763;48.780;9.212;2023-04-10T16:19:03;98295.13;;;23.07;21.95
19259;BME280;9763;48.780;9.212;2023-04-10T16:22:27;98291.72;;;22.98;21.94
19259;BME280;9763;48.780;9.212;2023-04-10T16:25:51;98271.94;;;22.78;22.27
19259;BME280;9763;48.780;9.212;2023-04-10T16:29:16;98291.06;;;22.81;22.23
19259;BME280;9763;48.780;9.212;2023-04-10T16:32:41;98292.09;;;22.72;22.88
19259;BME280;9763;48.780;9.212;2023-04-10T16:36:05;98291.97;;;22.66;22.42
19259;BME280;9763;48.780;9.212;2023-04-10T16:39:29;98281.69;;;22.62;22.75
19259;BME280;9763;48.780;9.212;2023-04-10T16:42:53;98271.22;;;22.61;22.63
19259;BME280;9763;48.780;9.212;2023-04-10T16:46:19;98260.47;;;22.54;22.81
19259;BME280;9763;48.780;9.212;2023-04-10T16:49:42;98248.06;;;22.47;22.76
19259;BME280;9763;48.780;9.212;2023-04-10T16:53:07;98248.13;;;22.39;23.12
19259;BME280;9763;48.780;9.212;2023-04-10T16:56:31;98233.06;;;22.31;23.04
19259;BME280;9763;48.780;9.212;2023-04-10T16:59:55;98236.78;;;22.22;23.15
19259;BME280;9763;48.780;9.212;2023-04-10T17:03:21;98243.16;;;22.13;23.56
19259;BME280;9763;48.780;9.212;2023-04-10T17:06:45;98234.94;;;22.00;23.18
19259;BME280;9763;48.780;9.212;2023-04-10T17:10:09;98238.16;;;21.87;23.50
19259;BME280;9763;48.780;9.212;2023-04-10T17:13:33;98249.53;;;21.73;23.74
19259;BME280;9763;48.780;9.212;2023-04-10T17:16:58;98246.44;;;21.61;24.00
19259;BME280;9763;48.780;9.212;2023-04-10T17:20:23;98243.81;;;21.53;23.65
19259;BME280;9763;48.780;9.212;2023-04-10T17:23:47;98244.03;;;21.43;24.30
19259;BME280;9763;48.780;9.212;2023-04-10T17:27:12;98238.75;;;21.35;24.12
19259;BME280;9763;48.780;9.212;2023-04-10T17:30:36;98241.09;;;21.30;24.33
19259;BME280;9763;48.780;9.212;2023-04-10T17:34:00;98246.09;;;21.25;24.32
19259;BME280;9763;48.780;9.212;2023-04-10T17:37:26;98239.63;;;21.19;24.44
19259;BME280;9763;48.780;9.212;2023-04-10T17:40:50;98248.44;;;21.12;24.50
19259;BME280;9763;48.780;9.212;2023-04-10T17:44:14;98238.47;;;21.06;24.72
19259;BME280;9763;48.780;9.212;2023-04-10T17:47:38;98237.50;;;20.99;24.61
19259;BME280;9763;48.780;9.212;2023-04-10T17:51:04;98229.38;;;20.92;24.30
19259;BME280;9763;48.780;9.212;2023-04-10T17:54:29;98227.59;;;20.84;24.86
19259;BME280;9763;48.780;9.212;2023-04-10T17:57:54;98222.09;;;20.78;24.70
19259;BME280;9763;48.780;9.212;2023-04-10T18:01:22;98210.53;;;20.71;24.92
19259;BME280;9763;48.780;9.212;2023-04-10T18:04:47;98213.66;;;20.66;24.93
19259;BME280;9763;48.780;9.212;2023-04-10T18:08:11;98205.56;;;20.60;25.14
19259;BME280;9763;48.780;9.212;2023-04-10T18:11:37;98205.22;;;20.55;25.26
19259;BME280;9763;48.780;9.212;2023-04-10T18:15:01;98190.84;;;20.49;25.08
19259;BME280;9763;48.780;9.212;2023-04-10T18:18:25;98182.88;;;20.41;25.43
19259;BME280;9763;48.780;9.212;2023-04-10T18:21:49;98173.09;;;20.33;25.47
19259;BME280;9763;48.780;9.212;2023-04-10T18:25:13;98160.84;;;20.24;25.27
19259;BME280;9763;48.780;9.212;2023-04-10T18:28:39;98163.50;;;20.16;25.21
19259;BME280;9763;48.780;9.212;2023-04-10T18:32:05;98171.44;;;20.08;25.35
19259;BME280;9763;48.780;9.212;2023-04-10T18:35:30;98187.19;;;20.01;25.62